Terminal Aerodrome Forecast
Issued by NWS North Platte, NE

Home | Current Version | Previous Version | Text Only | Print | Product List | Glossary On
Versions: 1 2 3 4 5 6 7 8 9 10 11 12
000
FTUS43 KLBF 262333
TAFLBF
TAF
KLBF 262333Z 2700/2724 16009KT P6SM FEW250
     FM270300 13009KT P6SM SCT250
     FM270400 15008KT P6SM BKN250 WS015/18040KT
     FM271500 16009KT P6SM BKN250
     FM271800 16013G19KT P6SM BKN250
     FM272200 15015G25KT P6SM BKN250=

USA.gov is the U.S. government's official web portal to all federal, state and local government web resources and services.